AAL261 KCLT-KATL
Flight info
| Callsign | AAL261 |
|---|---|
| Flight time | 0h 48m |
| Altitude | 24000 |
| Route | BOBZY5 TNSLY LEAVI OZZZI2 |
| Aircraft | A21N/M-SDE2E3FGHIJ1RWXY/LB1 |
Departure
| Time | 2026-05-06 00:13 |
|---|---|
| Airport | Charlotte Douglas International Airport (KCLT) |
Arrival
| Time | 2026-05-06 01:01 |
|---|---|
| Airport | Hartsfield Jackson Atlanta International Airport (KATL) |
| Time | Latitude | Longitude | Altitude | Speed | Heading |
|---|---|---|---|---|---|
| 2026-05-05 23:07 | 35.21762 | -80.94271 | 723 ft | 0 kts | 49° |
| 2026-05-05 23:57 | 35.21761 | -80.94272 | 722 ft | 2 kts | 49° |
| 2026-05-05 23:58 | 35.21749 | -80.94289 | 723 ft | 3 kts | 49° |
| 2026-05-05 23:58 | 35.21737 | -80.94307 | 722 ft | 3 kts | 49° |
| 2026-05-05 23:58 | 35.21729 | -80.94328 | 722 ft | 3 kts | 109° |
| 2026-05-05 23:58 | 35.21735 | -80.94341 | 721 ft | 0 kts | 141° |
| 2026-05-06 00:05 | 35.21719 | -80.94335 | 722 ft | 3 kts | 176° |
| 2026-05-06 00:05 | 35.21693 | -80.94337 | 722 ft | 5 kts | 182° |
| 2026-05-06 00:05 | 35.21665 | -80.94363 | 723 ft | 6 kts | 246° |
| 2026-05-06 00:06 | 35.21654 | -80.94425 | 722 ft | 9 kts | 258° |
| 2026-05-06 00:06 | 35.21635 | -80.94507 | 722 ft | 11 kts | 256° |
| 2026-05-06 00:06 | 35.21629 | -80.94610 | 720 ft | 13 kts | 267° |
| 2026-05-06 00:06 | 35.21618 | -80.94728 | 719 ft | 15 kts | 264° |
| 2026-05-06 00:07 | 35.21614 | -80.94836 | 720 ft | 14 kts | 267° |
| 2026-05-06 00:07 | 35.21608 | -80.94941 | 719 ft | 12 kts | 265° |
| 2026-05-06 00:07 | 35.21654 | -80.95019 | 718 ft | 13 kts | 343° |
| 2026-05-06 00:07 | 35.21752 | -80.95031 | 719 ft | 15 kts | 356° |
| 2026-05-06 00:08 | 35.21867 | -80.95039 | 718 ft | 18 kts | 356° |
| 2026-05-06 00:08 | 35.21997 | -80.95048 | 717 ft | 20 kts | 356° |
| 2026-05-06 00:08 | 35.22141 | -80.95065 | 716 ft | 22 kts | 354° |
| 2026-05-06 00:08 | 35.22299 | -80.95079 | 715 ft | 24 kts | 356° |
| 2026-05-06 00:09 | 35.22462 | -80.95093 | 715 ft | 23 kts | 356° |
| 2026-05-06 00:09 | 35.22601 | -80.95102 | 714 ft | 7 kts | 355° |
| 2026-05-06 00:09 | 35.22606 | -80.95103 | 713 ft | 2 kts | 355° |
| 2026-05-06 00:09 | 35.22631 | -80.95109 | 713 ft | 5 kts | 346° |
| 2026-05-06 00:10 | 35.22676 | -80.95112 | 712 ft | 8 kts | 357° |
| 2026-05-06 00:10 | 35.22726 | -80.95148 | 709 ft | 10 kts | 297° |
| 2026-05-06 00:10 | 35.22732 | -80.95183 | 709 ft | 0 kts | 276° |
| 2026-05-06 00:11 | 35.22732 | -80.95184 | 704 ft | 1 kts | 276° |
| 2026-05-06 00:11 | 35.22734 | -80.95209 | 708 ft | 5 kts | 273° |
| 2026-05-06 00:11 | 35.22731 | -80.95264 | 705 ft | 8 kts | 256° |
| 2026-05-06 00:11 | 35.22698 | -80.95308 | 704 ft | 7 kts | 204° |
| 2026-05-06 00:12 | 35.22650 | -80.95310 | 711 ft | 2 kts | 175° |
| 2026-05-06 00:12 | 35.22644 | -80.95310 | 711 ft | 11 kts | 175° |
| 2026-05-06 00:12 | 35.22219 | -80.95271 | 718 ft | 107 kts | 176° |
| 2026-05-06 00:12 | 35.21217 | -80.95215 | 756 ft | 175 kts | 178° |
| 2026-05-06 00:13 | 35.19922 | -80.95066 | 1386 ft | 198 kts | 176° |
| 2026-05-06 00:13 | 35.18459 | -80.94864 | 2011 ft | 222 kts | 175° |
| 2026-05-06 00:13 | 35.16866 | -80.94612 | 2551 ft | 240 kts | 174° |
| 2026-05-06 00:13 | 35.15151 | -80.94306 | 3183 ft | 256 kts | 174° |
| 2026-05-06 00:14 | 35.13354 | -80.94089 | 3995 ft | 262 kts | 179° |
| 2026-05-06 00:14 | 35.11514 | -80.94028 | 4865 ft | 267 kts | 181° |
| 2026-05-06 00:14 | 35.09663 | -80.94027 | 5912 ft | 264 kts | 179° |
| 2026-05-06 00:14 | 35.07855 | -80.93795 | 6983 ft | 260 kts | 175° |
| 2026-05-06 00:15 | 35.06057 | -80.93503 | 7774 ft | 267 kts | 177° |
| 2026-05-06 00:15 | 35.04172 | -80.93252 | 7828 ft | 273 kts | 178° |
| 2026-05-06 00:15 | 35.02285 | -80.93053 | 7812 ft | 272 kts | 179° |
| 2026-05-06 00:15 | 35.00393 | -80.92906 | 7788 ft | 272 kts | 181° |
| 2026-05-06 00:16 | 34.98504 | -80.92811 | 7782 ft | 271 kts | 182° |
| 2026-05-06 00:16 | 34.96617 | -80.92769 | 7777 ft | 271 kts | 183° |
| 2026-05-06 00:16 | 34.94737 | -80.92780 | 7778 ft | 270 kts | 184° |
| 2026-05-06 00:16 | 34.92875 | -80.93030 | 7901 ft | 272 kts | 204° |
| 2026-05-06 00:17 | 34.91427 | -80.94428 | 8726 ft | 268 kts | 239° |
| 2026-05-06 00:17 | 34.90891 | -80.96537 | 9557 ft | 268 kts | 271° |
| 2026-05-06 00:17 | 34.91311 | -80.98777 | 10405 ft | 271 kts | 290° |
| 2026-05-06 00:17 | 34.92177 | -81.00832 | 10951 ft | 287 kts | 298° |
| 2026-05-06 00:18 | 34.93181 | -81.03035 | 11244 ft | 307 kts | 295° |
| 2026-05-06 00:18 | 34.94173 | -81.05382 | 11869 ft | 314 kts | 294° |
| 2026-05-06 00:18 | 34.95162 | -81.07779 | 12623 ft | 318 kts | 294° |
| 2026-05-06 00:18 | 34.95834 | -81.09414 | 13146 ft | 320 kts | 294° |
| 2026-05-06 00:19 | 34.97174 | -81.12645 | 14122 ft | 325 kts | 295° |
| 2026-05-06 00:19 | 34.98208 | -81.15110 | 14800 ft | 328 kts | 295° |
| 2026-05-06 00:19 | 34.99254 | -81.17586 | 15482 ft | 331 kts | 295° |
| 2026-05-06 00:19 | 35.00316 | -81.20097 | 15913 ft | 334 kts | 295° |
| 2026-05-06 00:20 | 35.01385 | -81.22624 | 16603 ft | 336 kts | 296° |
| 2026-05-06 00:20 | 35.02113 | -81.24341 | 17088 ft | 338 kts | 296° |
| 2026-05-06 00:20 | 35.03554 | -81.27737 | 18004 ft | 342 kts | 296° |
| 2026-05-06 00:20 | 35.04294 | -81.29486 | 18432 ft | 345 kts | 296° |
| 2026-05-06 00:21 | 35.05398 | -81.32094 | 19003 ft | 348 kts | 296° |
| 2026-05-06 00:21 | 35.06512 | -81.34728 | 19597 ft | 351 kts | 296° |
| 2026-05-06 00:21 | 35.07617 | -81.37343 | 20205 ft | 353 kts | 296° |
| 2026-05-06 00:21 | 35.08760 | -81.40054 | 20811 ft | 355 kts | 296° |
| 2026-05-06 00:22 | 35.09892 | -81.42745 | 21411 ft | 358 kts | 296° |
| 2026-05-06 00:22 | 35.11017 | -81.45423 | 21999 ft | 360 kts | 296° |
| 2026-05-06 00:22 | 35.12161 | -81.48151 | 22596 ft | 363 kts | 296° |
| 2026-05-06 00:22 | 35.13316 | -81.50906 | 23177 ft | 366 kts | 295° |
| 2026-05-06 00:23 | 35.14478 | -81.53683 | 23719 ft | 368 kts | 296° |
| 2026-05-06 00:23 | 35.15651 | -81.56476 | 23954 ft | 369 kts | 296° |
| 2026-05-06 00:23 | 35.16810 | -81.59253 | 24017 ft | 361 kts | 294° |
| 2026-05-06 00:23 | 35.17601 | -81.62089 | 24028 ft | 348 kts | 281° |
| 2026-05-06 00:24 | 35.17808 | -81.65019 | 24028 ft | 347 kts | 269° |
| 2026-05-06 00:24 | 35.17444 | -81.67934 | 24024 ft | 349 kts | 257° |
| 2026-05-06 00:24 | 35.16743 | -81.70773 | 24021 ft | 349 kts | 257° |
| 2026-05-06 00:24 | 35.16040 | -81.73611 | 24019 ft | 349 kts | 257° |
| 2026-05-06 00:25 | 35.15339 | -81.76448 | 24000 ft | 349 kts | 257° |
| 2026-05-06 00:25 | 35.14640 | -81.79285 | 24001 ft | 349 kts | 257° |
| 2026-05-06 00:25 | 35.13937 | -81.82126 | 24000 ft | 349 kts | 257° |
| 2026-05-06 00:25 | 35.13235 | -81.84964 | 24002 ft | 348 kts | 257° |
| 2026-05-06 00:26 | 35.12536 | -81.87799 | 24004 ft | 349 kts | 257° |
| 2026-05-06 00:26 | 35.11835 | -81.90637 | 24005 ft | 349 kts | 257° |
| 2026-05-06 00:26 | 35.11133 | -81.93472 | 24008 ft | 349 kts | 257° |
| 2026-05-06 00:26 | 35.10427 | -81.96307 | 24016 ft | 349 kts | 257° |
| 2026-05-06 00:27 | 35.09717 | -81.99143 | 24013 ft | 349 kts | 257° |
| 2026-05-06 00:27 | 35.09008 | -82.01978 | 24020 ft | 349 kts | 257° |
| 2026-05-06 00:27 | 35.08303 | -82.04814 | 24002 ft | 350 kts | 257° |
| 2026-05-06 00:27 | 35.07610 | -82.07615 | 23759 ft | 348 kts | 257° |
| 2026-05-06 00:28 | 35.06904 | -82.10477 | 23492 ft | 347 kts | 256° |
| 2026-05-06 00:28 | 35.06212 | -82.13290 | 23227 ft | 345 kts | 257° |
| 2026-05-06 00:28 | 35.05534 | -82.16057 | 22983 ft | 344 kts | 257° |
| 2026-05-06 00:28 | 35.04848 | -82.18846 | 22896 ft | 343 kts | 256° |
| 2026-05-06 00:29 | 35.04154 | -82.21627 | 22993 ft | 342 kts | 256° |
| 2026-05-06 00:29 | 35.03454 | -82.24413 | 23261 ft | 345 kts | 256° |
| 2026-05-06 00:29 | 35.02748 | -82.27216 | 23532 ft | 346 kts | 256° |
| 2026-05-06 00:29 | 35.02022 | -82.30021 | 23765 ft | 348 kts | 253° |
| 2026-05-06 00:30 | 35.01001 | -82.32722 | 23941 ft | 354 kts | 245° |
| 2026-05-06 00:30 | 34.99760 | -82.35333 | 24007 ft | 355 kts | 245° |
| 2026-05-06 00:30 | 34.98520 | -82.37934 | 24028 ft | 355 kts | 245° |
| 2026-05-06 00:30 | 34.97275 | -82.40538 | 24032 ft | 355 kts | 245° |
| 2026-05-06 00:31 | 34.96028 | -82.43140 | 24034 ft | 356 kts | 245° |
| 2026-05-06 00:31 | 34.94777 | -82.45745 | 24032 ft | 356 kts | 245° |
| 2026-05-06 00:31 | 34.93524 | -82.48347 | 24033 ft | 356 kts | 245° |
| 2026-05-06 00:31 | 34.92271 | -82.50948 | 24017 ft | 356 kts | 245° |
| 2026-05-06 00:32 | 34.91014 | -82.53550 | 24015 ft | 356 kts | 244° |
| 2026-05-06 00:32 | 34.89756 | -82.56149 | 24015 ft | 356 kts | 244° |
| 2026-05-06 00:32 | 34.88497 | -82.58750 | 24016 ft | 356 kts | 244° |
| 2026-05-06 00:32 | 34.87237 | -82.61352 | 24017 ft | 356 kts | 244° |
| 2026-05-06 00:33 | 34.85904 | -82.63903 | 24019 ft | 358 kts | 241° |
| 2026-05-06 00:33 | 34.84484 | -82.66400 | 24018 ft | 359 kts | 240° |
| 2026-05-06 00:33 | 34.83021 | -82.68869 | 24020 ft | 360 kts | 239° |
| 2026-05-06 00:33 | 34.81543 | -82.71325 | 24022 ft | 360 kts | 239° |
| 2026-05-06 00:34 | 34.80067 | -82.73787 | 24025 ft | 360 kts | 239° |
| 2026-05-06 00:34 | 34.79096 | -82.75419 | 24026 ft | 360 kts | 239° |
| 2026-05-06 00:34 | 34.77156 | -82.78734 | 24005 ft | 359 kts | 240° |
| 2026-05-06 00:34 | 34.75749 | -82.81220 | 24004 ft | 359 kts | 241° |
| 2026-05-06 00:35 | 34.74337 | -82.83746 | 24013 ft | 359 kts | 241° |
| 2026-05-06 00:35 | 34.72934 | -82.86264 | 24015 ft | 360 kts | 241° |
| 2026-05-06 00:35 | 34.71525 | -82.88779 | 24016 ft | 360 kts | 241° |
| 2026-05-06 00:35 | 34.70110 | -82.91290 | 24018 ft | 360 kts | 241° |
| 2026-05-06 00:36 | 34.68693 | -82.93805 | 24020 ft | 360 kts | 241° |
| 2026-05-06 00:36 | 34.67275 | -82.96315 | 24022 ft | 361 kts | 241° |
| 2026-05-06 00:36 | 34.65854 | -82.98829 | 24023 ft | 361 kts | 241° |
| 2026-05-06 00:36 | 34.64454 | -83.01305 | 24024 ft | 361 kts | 241° |
| 2026-05-06 00:37 | 34.63033 | -83.03813 | 24024 ft | 361 kts | 241° |
| 2026-05-06 00:37 | 34.61606 | -83.06328 | 24023 ft | 361 kts | 241° |
| 2026-05-06 00:37 | 34.60183 | -83.08838 | 24029 ft | 361 kts | 241° |
| 2026-05-06 00:37 | 34.58757 | -83.11348 | 24032 ft | 361 kts | 241° |
| 2026-05-06 00:38 | 34.57334 | -83.13855 | 24036 ft | 361 kts | 241° |
| 2026-05-06 00:38 | 34.55907 | -83.16365 | 24033 ft | 361 kts | 240° |
| 2026-05-06 00:38 | 34.54481 | -83.18867 | 24021 ft | 361 kts | 240° |
| 2026-05-06 00:38 | 34.53053 | -83.21367 | 24028 ft | 361 kts | 240° |
| 2026-05-06 00:39 | 34.51626 | -83.23866 | 24026 ft | 361 kts | 240° |
| 2026-05-06 00:39 | 34.50200 | -83.26365 | 24031 ft | 360 kts | 240° |
| 2026-05-06 00:39 | 34.48773 | -83.28867 | 24029 ft | 360 kts | 240° |
| 2026-05-06 00:39 | 34.47333 | -83.31388 | 24036 ft | 371 kts | 240° |
| 2026-05-06 00:40 | 34.45834 | -83.33991 | 24031 ft | 380 kts | 240° |
| 2026-05-06 00:40 | 34.44306 | -83.36618 | 24009 ft | 383 kts | 239° |
| 2026-05-06 00:40 | 34.42762 | -83.39253 | 24013 ft | 383 kts | 239° |
| 2026-05-06 00:40 | 34.41215 | -83.41884 | 24011 ft | 384 kts | 239° |
| 2026-05-06 00:41 | 34.39670 | -83.44519 | 24019 ft | 384 kts | 239° |
| 2026-05-06 00:41 | 34.38128 | -83.47155 | 24018 ft | 384 kts | 239° |
| 2026-05-06 00:41 | 34.36592 | -83.49793 | 24019 ft | 384 kts | 240° |
| 2026-05-06 00:41 | 34.35053 | -83.52438 | 24025 ft | 384 kts | 239° |
| 2026-05-06 00:42 | 34.33517 | -83.55074 | 24031 ft | 383 kts | 239° |
| 2026-05-06 00:42 | 34.31979 | -83.57703 | 24028 ft | 383 kts | 239° |
| 2026-05-06 00:42 | 34.30443 | -83.60327 | 24007 ft | 380 kts | 239° |
| 2026-05-06 00:42 | 34.28871 | -83.62832 | 23936 ft | 368 kts | 231° |
| 2026-05-06 00:43 | 34.27016 | -83.64887 | 23712 ft | 355 kts | 226° |
| 2026-05-06 00:43 | 34.25184 | -83.66831 | 23163 ft | 347 kts | 226° |
| 2026-05-06 00:43 | 34.23380 | -83.68744 | 22514 ft | 343 kts | 226° |
| 2026-05-06 00:43 | 34.21621 | -83.70614 | 21873 ft | 339 kts | 226° |
| 2026-05-06 00:44 | 34.19860 | -83.72489 | 21232 ft | 336 kts | 226° |
| 2026-05-06 00:44 | 34.18118 | -83.74343 | 20593 ft | 332 kts | 226° |
| 2026-05-06 00:44 | 34.16394 | -83.76181 | 19961 ft | 330 kts | 226° |
| 2026-05-06 00:44 | 34.14682 | -83.78008 | 19355 ft | 327 kts | 226° |
| 2026-05-06 00:45 | 34.12987 | -83.79813 | 18755 ft | 324 kts | 226° |
| 2026-05-06 00:45 | 34.11299 | -83.81598 | 18154 ft | 321 kts | 226° |
| 2026-05-06 00:45 | 34.09624 | -83.83364 | 17484 ft | 318 kts | 226° |
| 2026-05-06 00:45 | 34.07971 | -83.85120 | 16862 ft | 315 kts | 226° |
| 2026-05-06 00:46 | 34.06347 | -83.86863 | 16262 ft | 311 kts | 227° |
| 2026-05-06 00:46 | 34.04742 | -83.88593 | 15643 ft | 308 kts | 227° |
| 2026-05-06 00:46 | 34.03156 | -83.90309 | 15074 ft | 305 kts | 227° |
| 2026-05-06 00:46 | 34.01585 | -83.92003 | 14585 ft | 299 kts | 227° |
| 2026-05-06 00:47 | 34.00048 | -83.93651 | 14123 ft | 293 kts | 227° |
| 2026-05-06 00:47 | 33.98515 | -83.95251 | 13580 ft | 292 kts | 222° |
| 2026-05-06 00:47 | 33.96698 | -83.96382 | 13015 ft | 299 kts | 203° |
| 2026-05-06 00:47 | 33.94624 | -83.96738 | 12456 ft | 306 kts | 185° |
| 2026-05-06 00:48 | 33.92497 | -83.96642 | 11886 ft | 304 kts | 184° |
| 2026-05-06 00:48 | 33.90395 | -83.96543 | 11370 ft | 300 kts | 184° |
| 2026-05-06 00:48 | 33.88321 | -83.96453 | 10867 ft | 296 kts | 184° |
| 2026-05-06 00:48 | 33.86277 | -83.96365 | 10380 ft | 292 kts | 184° |
| 2026-05-06 00:49 | 33.84265 | -83.96276 | 10011 ft | 284 kts | 184° |
| 2026-05-06 00:49 | 33.82349 | -83.96187 | 9888 ft | 267 kts | 184° |
| 2026-05-06 00:49 | 33.80550 | -83.96105 | 9744 ft | 250 kts | 185° |
| 2026-05-06 00:49 | 33.78853 | -83.96029 | 9413 ft | 241 kts | 185° |
| 2026-05-06 00:50 | 33.77187 | -83.95964 | 8943 ft | 238 kts | 184° |
| 2026-05-06 00:50 | 33.75559 | -83.96055 | 8467 ft | 231 kts | 195° |
| 2026-05-06 00:50 | 33.74039 | -83.96564 | 8026 ft | 225 kts | 206° |
| 2026-05-06 00:50 | 33.72589 | -83.97301 | 7509 ft | 229 kts | 207° |
| 2026-05-06 00:51 | 33.71163 | -83.98016 | 7378 ft | 214 kts | 206° |
| 2026-05-06 00:51 | 33.69845 | -83.98665 | 7260 ft | 193 kts | 206° |
| 2026-05-06 00:51 | 33.68684 | -83.99230 | 7139 ft | 168 kts | 207° |
| 2026-05-06 00:51 | 33.67658 | -83.99735 | 6930 ft | 153 kts | 207° |
| 2026-05-06 00:52 | 33.66755 | -84.00335 | 6653 ft | 145 kts | 219° |
| 2026-05-06 00:52 | 33.66021 | -84.01154 | 6381 ft | 143 kts | 230° |
| 2026-05-06 00:52 | 33.65452 | -84.02131 | 6124 ft | 143 kts | 240° |
| 2026-05-06 00:52 | 33.65126 | -84.03261 | 5851 ft | 146 kts | 256° |
| 2026-05-06 00:53 | 33.65003 | -84.04475 | 5560 ft | 147 kts | 261° |
| 2026-05-06 00:53 | 33.64948 | -84.05698 | 5281 ft | 149 kts | 263° |
| 2026-05-06 00:53 | 33.64925 | -84.06945 | 5000 ft | 150 kts | 263° |
| 2026-05-06 00:53 | 33.64917 | -84.08203 | 4739 ft | 151 kts | 263° |
| 2026-05-06 00:54 | 33.64915 | -84.09470 | 4460 ft | 152 kts | 263° |
| 2026-05-06 00:54 | 33.64916 | -84.10737 | 4193 ft | 152 kts | 263° |
| 2026-05-06 00:54 | 33.64918 | -84.12001 | 3934 ft | 151 kts | 264° |
| 2026-05-06 00:54 | 33.64921 | -84.13260 | 3696 ft | 150 kts | 263° |
| 2026-05-06 00:55 | 33.64924 | -84.14512 | 3467 ft | 150 kts | 264° |
| 2026-05-06 00:55 | 33.64926 | -84.15761 | 3219 ft | 150 kts | 263° |
| 2026-05-06 00:55 | 33.64929 | -84.17009 | 2986 ft | 149 kts | 264° |
| 2026-05-06 00:55 | 33.64931 | -84.18245 | 2768 ft | 147 kts | 265° |
| 2026-05-06 00:56 | 33.64933 | -84.19474 | 2715 ft | 149 kts | 264° |
| 2026-05-06 00:56 | 33.64935 | -84.20721 | 2717 ft | 150 kts | 264° |
| 2026-05-06 00:56 | 33.64937 | -84.21973 | 2707 ft | 150 kts | 263° |
| 2026-05-06 00:56 | 33.64940 | -84.23228 | 2712 ft | 149 kts | 264° |
| 2026-05-06 00:57 | 33.64942 | -84.24464 | 2714 ft | 148 kts | 263° |
| 2026-05-06 00:57 | 33.64943 | -84.25694 | 2712 ft | 147 kts | 264° |
| 2026-05-06 00:57 | 33.64945 | -84.26925 | 2709 ft | 147 kts | 264° |
| 2026-05-06 00:57 | 33.64946 | -84.28160 | 2708 ft | 149 kts | 264° |
| 2026-05-06 00:58 | 33.64947 | -84.29410 | 2720 ft | 150 kts | 263° |
| 2026-05-06 00:58 | 33.64948 | -84.30659 | 2635 ft | 150 kts | 263° |
| 2026-05-06 00:58 | 33.64950 | -84.31893 | 2497 ft | 147 kts | 263° |
| 2026-05-06 00:58 | 33.64952 | -84.33077 | 2323 ft | 139 kts | 263° |
| 2026-05-06 00:59 | 33.64952 | -84.34230 | 2140 ft | 137 kts | 263° |
| 2026-05-06 00:59 | 33.64953 | -84.35373 | 1952 ft | 137 kts | 262° |
| 2026-05-06 00:59 | 33.64956 | -84.36531 | 1747 ft | 138 kts | 264° |
| 2026-05-06 00:59 | 33.64985 | -84.37679 | 1655 ft | 137 kts | 266° |
| 2026-05-06 01:00 | 33.64959 | -84.38823 | 1490 ft | 137 kts | 266° |
| 2026-05-06 01:00 | 33.64961 | -84.39970 | 1318 ft | 138 kts | 267° |
| 2026-05-06 01:00 | 33.64953 | -84.41110 | 1121 ft | 137 kts | 266° |
| 2026-05-06 01:00 | 33.64965 | -84.42217 | 1043 ft | 122 kts | 268° |
| 2026-05-06 01:01 | 33.64953 | -84.43027 | 1035 ft | 48 kts | 270° |
| 2026-05-06 01:01 | 33.64897 | -84.43251 | 1036 ft | 20 kts | 239° |
| 2026-05-06 01:01 | 33.64817 | -84.43292 | 1036 ft | 0 kts | 139° |
| 2026-05-06 01:01 | 33.64812 | -84.43286 | 1036 ft | 2 kts | 139° |
| 2026-05-06 01:02 | 33.64800 | -84.43271 | 1036 ft | 0 kts | 131° |
| 2026-05-06 01:02 | 33.64800 | -84.43270 | 1036 ft | 0 kts | 131° |
| 2026-05-06 01:02 | 33.64796 | -84.43262 | 1036 ft | 2 kts | 116° |
| 2026-05-06 01:03 | 33.64791 | -84.43249 | 1036 ft | 0 kts | 117° |
| 2026-05-06 01:03 | 33.64789 | -84.43241 | 1036 ft | 1 kts | 95° |
| 2026-05-06 01:03 | 33.64789 | -84.43218 | 1036 ft | 4 kts | 92° |
| 2026-05-06 01:04 | 33.64787 | -84.43176 | 1036 ft | 6 kts | 92° |
| 2026-05-06 01:04 | 33.64760 | -84.43145 | 1036 ft | 6 kts | 161° |
| 2026-05-06 01:04 | 33.64712 | -84.43135 | 1037 ft | 8 kts | 178° |
| 2026-05-06 01:04 | 33.64660 | -84.43167 | 1037 ft | 9 kts | 225° |
| 2026-05-06 01:05 | 33.64619 | -84.43234 | 1037 ft | 11 kts | 234° |
| 2026-05-06 01:05 | 33.64581 | -84.43251 | 1037 ft | 2 kts | 180° |
| 2026-05-06 01:05 | 33.64562 | -84.43239 | 1036 ft | 7 kts | 137° |
| 2026-05-06 01:05 | 33.64538 | -84.43148 | 1036 ft | 13 kts | 107° |
| 2026-05-06 01:06 | 33.64462 | -84.43110 | 1036 ft | 13 kts | 196° |
| 2026-05-06 01:06 | 33.64382 | -84.43150 | 1036 ft | 11 kts | 236° |
| 2026-05-06 01:06 | 33.64364 | -84.43213 | 1036 ft | 0 kts | 231° |
| 2026-05-06 01:06 | 33.64363 | -84.43213 | 1036 ft | 0 kts | 231° |